Time;durP1;ratioP1;P1;durP2;ratioP2;P2;SDS_P1;SDS_P2;PMS_P1;PMS_P2;Temp;Humidity;BMP_temperature;BMP_pressure;BME280_temperature;BME280_humidity;BME280_pressure;Samples;Min_cycle;Max_cycle;Signal;HPM_P1;HPM_P2
2023/04/07 00:00:37;;;;;;;;;1.83;1.83;;;;;12.53;53.65;101571.63;1972871;28;2732582;-80
2023/04/07 00:01:50;;;;;;;;;0.00;0.00;;;;;12.53;53.41;101575.13;1998028;28;2725251;-80
2023/04/07 00:03:05;;;;;;;;;1.17;1.17;;;;;12.53;53.56;101566.34;1997619;28;2725259;-81
2023/04/07 00:04:19;;;;;;;;;3.50;1.17;;;;;12.54;53.63;101581.28;1996767;28;2735775;-80
2023/04/07 00:05:34;;;;;;;;;1.33;1.17;;;;;12.53;53.61;101571.63;1997191;28;2722146;-80
2023/04/07 00:06:47;;;;;;;;;2.00;2.00;;;;;12.53;53.70;101579.53;1996066;28;2730483;-81
2023/04/07 00:08:00;;;;;;;;;2.00;1.17;;;;;12.53;53.67;101580.41;1989343;28;2735707;-80
2023/04/07 00:09:13;;;;;;;;;3.33;0.33;;;;;12.52;53.95;101577.81;1989206;28;2727342;-80
2023/04/07 00:10:27;;;;;;;;;1.50;1.33;;;;;12.50;53.75;101575.19;1990025;28;2732578;-80
2023/04/07 00:11:40;;;;;;;;;1.50;1.00;;;;;12.49;53.91;101576.97;1989263;28;2727381;-80
2023/04/07 00:12:53;;;;;;;;;0.67;0.50;;;;;12.48;54.17;101574.38;1989292;28;2721132;-80
2023/04/07 00:14:06;;;;;;;;;4.17;1.67;;;;;12.45;54.33;101571.81;1997113;28;2733156;-80
2023/04/07 00:15:20;;;;;;;;;1.50;1.00;;;;;12.44;54.10;101572.75;1971436;28;2725307;-80
2023/04/07 00:16:33;;;;;;;;;1.50;1.17;;;;;12.41;54.67;101564.91;1990477;28;2722138;-80
2023/04/07 00:17:46;;;;;;;;;1.00;0.33;;;;;12.40;54.29;101563.16;1990433;28;2727349;-81
2023/04/07 00:18:59;;;;;;;;;6.67;1.67;;;;;12.38;54.61;101568.50;1991885;28;2728408;-80
2023/04/07 00:20:12;;;;;;;;;2.00;0.00;;;;;12.36;54.56;101573.81;1995838;28;2735697;-81
2023/04/07 00:21:26;;;;;;;;;2.00;1.00;;;;;12.36;54.65;101575.59;1989764;28;2733953;-80
2023/04/07 00:22:39;;;;;;;;;0.17;0.17;;;;;12.33;54.53;101571.25;1990222;28;2732586;-80
2023/04/07 00:23:52;;;;;;;;;2.83;0.67;;;;;12.33;54.91;101573.91;1989533;28;2729425;-79
2023/04/07 00:25:06;;;;;;;;;4.50;1.83;;;;;12.30;55.09;101581.88;1986420;28;2748706;-80
2023/04/07 00:26:19;;;;;;;;;1.00;1.00;;;;;12.27;55.09;101582.81;1967010;28;2720106;-80
2023/04/07 00:27:33;;;;;;;;;3.00;1.83;;;;;12.25;54.96;101574.09;1988683;28;2752353;-80
2023/04/07 00:28:46;;;;;;;;;3.67;2.33;;;;;12.25;55.05;101573.22;1966336;28;2754444;-80
2023/04/07 00:29:59;;;;;;;;;0.33;0.00;;;;;12.24;54.71;101577.66;1974289;28;2708695;-80
2023/04/07 00:31:13;;;;;;;;;2.00;1.00;;;;;12.24;55.11;101582.06;1990038;28;2731522;-80
2023/04/07 00:32:23;;;;;;;;;1.67;1.00;;;;;12.23;55.37;101577.69;1965252;28;2738279;-80
2023/04/07 00:33:34;;;;;;;;;4.00;2.00;;;;;12.19;55.06;101579.53;1996240;28;2733655;-80
2023/04/07 00:34:47;;;;;;;;;1.33;1.00;;;;;12.17;55.41;101572.59;1965871;28;2726321;-80
2023/04/07 00:36:00;;;;;;;;;0.83;0.67;;;;;12.14;55.68;101570.88;1989569;28;2731520;-80
2023/04/07 00:37:14;;;;;;;;;3.00;1.00;;;;;12.11;55.43;101566.53;1988254;28;2741953;-80
2023/04/07 00:38:27;;;;;;;;;1.67;1.00;;;;;12.11;55.35;101565.66;1989107;28;2738900;-80
2023/04/07 00:39:37;;;;;;;;;6.33;2.00;;;;;12.11;55.38;101565.66;1964848;28;2754460;-81
2023/04/07 00:40:48;;;;;;;;;3.00;2.00;;;;;12.11;55.60;101568.28;1994132;28;2726324;-80
2023/04/07 00:42:04;;;;;;;;;2.00;2.00;;;;;12.11;55.39;101566.53;1968016;28;2740887;-80
2023/04/07 00:43:18;;;;;;;;;3.00;1.00;;;;;12.09;55.37;101565.72;1989218;28;2729449;-81
2023/04/07 00:44:32;;;;;;;;;3.00;2.67;;;;;12.10;55.58;101569.22;1989550;28;2754435;-80
2023/04/07 00:45:45;;;;;;;;;3.67;1.17;;;;;12.09;55.61;101563.06;1972928;28;2731533;-80
2023/04/07 00:46:59;;;;;;;;;2.00;1.33;;;;;12.07;55.75;101557.00;1966513;28;2737778;-80
2023/04/07 00:48:12;;;;;;;;;2.50;1.67;;;;;12.04;56.13;101546.53;1990029;28;2732558;-80
2023/04/07 00:49:30;;;;;;;;;2.83;1.83;;;;;12.03;55.52;101547.41;1995528;28;2750311;-80
2023/04/07 00:50:44;;;;;;;;;6.83;1.67;;;;;12.02;55.99;101548.34;1967502;28;2754451;-80
2023/04/07 00:51:58;;;;;;;;;1.67;1.00;;;;;12.00;55.74;101553.63;1958390;28;2741945;-80
2023/04/07 00:53:12;;;;;;;;;2.67;2.50;;;;;11.99;55.95;101551.91;1980975;28;2754428;-80
2023/04/07 00:54:25;;;;;;;;;3.33;1.00;;;;;11.98;56.13;101549.28;1973779;28;2743073;-80
2023/04/07 00:55:38;;;;;;;;;2.00;1.00;;;;;11.98;55.78;101544.03;1995020;28;2738844;-80
2023/04/07 00:56:52;;;;;;;;;4.33;1.33;;;;;11.98;55.93;101549.28;1994773;28;2736760;-80
2023/04/07 00:58:05;;;;;;;;;3.83;0.67;;;;;11.97;56.17;101542.31;1995004;28;2742963;-80
2023/04/07 00:59:20;;;;;;;;;2.67;1.33;;;;;11.97;56.00;101550.22;1957720;28;2748202;-80
2023/04/07 01:00:41;;;;;;;;;6.00;1.83;;;;;11.95;56.21;101542.34;1985989;28;2750252;-80
2023/04/07 01:02:00;;;;;;;;;2.17;1.00;;;;;11.95;56.39;101552.03;1964288;28;2742339;-80
2023/04/07 01:03:21;;;;;;;;;2.50;1.17;;;;;11.94;56.27;101551.16;1988644;28;2732549;-80
2023/04/07 01:04:50;;;;;;;;;4.33;2.33;;;;;11.93;56.05;101552.94;1966143;28;2747191;-80
2023/04/07 01:06:06;;;;;;;;;1.33;0.33;;;;;11.94;56.23;101551.16;1966779;28;2725270;-80
2023/04/07 01:07:45;;;;;;;;;2.83;1.67;;;;;11.92;56.13;101553.84;1990570;28;2739862;-80
2023/04/07 01:09:10;;;;;;;;;3.83;2.50;;;;;11.92;56.53;101552.97;1971316;28;2754826;-80
2023/04/07 01:10:34;;;;;;;;;1.67;1.67;;;;;11.91;56.13;101551.22;1969278;28;2742382;-80
2023/04/07 01:12:23;;;;;;;;;2.00;1.67;;;;;11.90;56.09;101550.34;1972786;28;2741925;-80
2023/04/07 01:13:47;;;;;;;;;4.33;0.83;;;;;11.90;56.08;101544.25;1966834;28;2746112;-80
2023/04/07 01:15:08;;;;;;;;;3.67;2.50;;;;;11.90;56.19;101550.34;2003947;28;2744029;-80
2023/04/07 01:16:34;;;;;;;;;1.00;1.00;;;;;11.89;56.32;101553.03;1975915;28;2739884;-80
2023/04/07 01:17:54;;;;;;;;;3.83;1.83;;;;;11.89;56.24;101545.16;1996341;28;2746161;-80
2023/04/07 01:19:15;;;;;;;;;1.33;1.33;;;;;11.87;56.40;101550.47;1955674;29;2754452;-80
2023/04/07 01:20:32;;;;;;;;;3.83;2.00;;;;;11.88;56.22;101546.03;1982615;28;2754440;-80
2023/04/07 01:21:47;;;;;;;;;3.50;1.50;;;;;11.88;56.42;101551.31;1970909;28;2746099;-80
2023/04/07 01:23:05;;;;;;;;;8.17;1.33;;;;;11.88;56.28;101546.03;2003936;28;2770090;-80
2023/04/07 01:24:37;;;;;;;;;1.00;1.00;;;;;11.87;56.39;101545.19;1996504;28;2737793;-80
2023/04/07 01:26:09;;;;;;;;;1.67;1.67;;;;;11.86;56.17;101543.44;1996724;28;2734688;-80
2023/04/07 01:27:47;;;;;;;;;2.17;1.67;;;;;11.84;56.50;101544.38;1996330;28;2741925;-80
2023/04/07 01:29:20;;;;;;;;;1.67;1.50;;;;;11.82;56.98;101544.44;1973929;28;2748209;-80
2023/04/07 01:30:39;;;;;;;;;1.83;1.83;;;;;11.80;56.55;101543.63;1973061;28;2752361;-80
2023/04/07 01:31:57;;;;;;;;;5.67;1.83;;;;;11.80;56.43;101543.63;1971285;28;2736732;-81
2023/04/07 01:33:12;;;;;;;;;2.50;2.00;;;;;11.76;56.96;101541.94;1989511;28;2749233;-80
2023/04/07 01:34:30;;;;;;;;;4.50;2.00;;;;;11.76;56.99;101544.56;1972725;28;2750274;-80
2023/04/07 01:35:45;;;;;;;;;3.67;2.50;;;;;11.76;56.79;101541.94;1971322;28;2744016;-80
2023/04/07 01:37:01;;;;;;;;;2.67;1.50;;;;;11.76;56.47;101540.19;1967127;28;2744020;-80
2023/04/07 01:38:15;;;;;;;;;3.67;1.50;;;;;11.76;56.65;101547.22;1996047;28;2737787;-80
2023/04/07 01:39:29;;;;;;;;;2.00;1.17;;;;;11.77;56.42;101552.47;1994294;28;2736732;-80
2023/04/07 01:40:44;;;;;;;;;3.17;2.00;;;;;11.76;56.68;101552.47;1986740;28;2754444;-80
2023/04/07 01:42:01;;;;;;;;;3.00;1.83;;;;;11.77;56.54;101554.22;1966935;28;2746100;-80
2023/04/07 01:43:15;;;;;;;;;4.50;2.17;;;;;11.77;56.73;101555.09;1973298;28;2754424;-80
2023/04/07 01:44:31;;;;;;;;;1.67;1.33;;;;;11.76;56.68;101555.13;1973405;28;2750273;-80
2023/04/07 01:45:45;;;;;;;;;1.50;1.00;;;;;11.74;56.71;101552.53;1974330;28;2730469;-80
2023/04/07 01:46:59;;;;;;;;;4.33;2.17;;;;;11.75;56.75;101545.50;1994957;28;2754448;-80
2023/04/07 01:48:15;;;;;;;;;1.83;1.83;;;;;11.74;56.70;101554.28;1972952;28;2750297;-80
2023/04/07 01:49:31;;;;;;;;;2.33;2.33;;;;;11.73;56.67;101553.41;1996295;28;2742978;-80
2023/04/07 01:50:45;;;;;;;;;2.83;2.00;;;;;11.74;57.28;101564.81;1974027;28;2733600;-80
2023/04/07 01:51:59;;;;;;;;;4.50;0.17;;;;;11.73;56.58;101558.69;1974266;28;2737778;-80
2023/04/07 01:53:14;;;;;;;;;6.33;2.00;;;;;11.73;56.67;101549.94;1973530;28;2746184;-80
2023/04/07 01:54:27;;;;;;;;;2.33;2.00;;;;;11.72;56.93;101550.84;1979721;28;2736716;-80
2023/04/07 01:55:42;;;;;;;;;2.00;1.83;;;;;11.72;56.73;101551.72;1975481;28;2746115;-80
2023/04/07 01:56:56;;;;;;;;;2.67;2.17;;;;;11.71;57.06;101557.88;1974158;28;2739846;-80
2023/04/07 01:58:09;;;;;;;;;2.67;2.50;;;;;11.72;57.04;101554.34;1973120;28;2744056;-80
2023/04/07 01:59:22;;;;;;;;;2.33;0.67;;;;;11.72;56.96;101550.84;1973334;28;2725287;-80
2023/04/07 02:00:36;;;;;;;;;4.00;0.67;;;;;11.73;56.95;101552.56;1989692;28;2735679;-80
2023/04/07 02:01:49;;;;;;;;;4.83;1.50;;;;;11.71;56.96;101557.88;1996325;28;2744035;-80
2023/04/07 02:03:19;;;;;;;;;3.67;2.00;;;;;11.70;57.12;101550.88;1974713;28;2736765;-80
2023/04/07 02:04:53;;;;;;;;;3.50;2.50;;;;;11.71;57.23;101549.97;1973789;28;2739837;-80
2023/04/07 02:06:08;;;;;;;;;2.83;2.50;;;;;11.73;57.19;101556.06;1972847;28;2744040;-80
2023/04/07 02:07:30;;;;;;;;;2.17;2.17;;;;;11.73;57.13;101555.22;1965102;28;2740922;-81
2023/04/07 02:08:49;;;;;;;;;4.17;3.17;;;;;11.71;57.23;101552.59;1983081;28;2743016;-80
2023/04/07 02:10:07;;;;;;;;;2.17;2.17;;;;;11.71;57.26;101552.59;1989926;28;2750304;-80
2023/04/07 02:11:23;;;;;;;;;4.33;3.33;;;;;11.70;57.40;101549.09;1974562;28;2728420;-80
2023/04/07 02:12:40;;;;;;;;;8.67;2.50;;;;;11.71;57.09;101563.13;1972365;28;2751314;-81
2023/04/07 02:13:55;;;;;;;;;5.67;2.67;;;;;11.70;57.43;101564.06;1974644;28;2746111;-80
2023/04/07 02:15:11;;;;;;;;;3.00;1.33;;;;;11.69;56.99;101563.19;1995750;28;2754448;-80
2023/04/07 02:16:25;;;;;;;;;2.67;2.00;;;;;11.68;57.52;101560.59;1972203;28;2754433;-80
2023/04/07 02:17:43;;;;;;;;;3.33;3.33;;;;;11.68;57.27;101558.81;1974007;28;2737822;-80
2023/04/07 02:18:57;;;;;;;;;3.83;3.67;;;;;11.66;57.48;101563.25;1978120;28;2750269;-80
2023/04/07 02:20:12;;;;;;;;;6.00;2.00;;;;;11.65;57.42;101553.63;1979605;28;2747547;-80
2023/04/07 02:21:27;;;;;;;;;3.33;2.50;;;;;11.65;57.52;101556.25;1974336;28;2733608;-80
2023/04/07 02:22:41;;;;;;;;;3.50;2.33;;;;;11.65;57.45;101558.91;1974165;28;2750282;-80
2023/04/07 02:23:55;;;;;;;;;5.17;1.50;;;;;11.63;57.56;101552.78;1990207;28;2746095;-80
2023/04/07 02:25:22;;;;;;;;;2.17;1.33;;;;;11.64;57.63;101551.88;1967856;28;2748213;-80
2023/04/07 02:26:36;;;;;;;;;4.00;3.17;;;;;11.63;57.36;101558.03;1993726;28;2739867;-80
2023/04/07 02:27:49;;;;;;;;;3.67;2.50;;;;;11.63;57.91;101560.69;1974180;28;2745084;-80
2023/04/07 02:29:03;;;;;;;;;2.83;1.50;;;;;11.62;57.71;101558.97;1966527;28;2745598;-80
2023/04/07 02:30:16;;;;;;;;;4.50;4.33;;;;;11.63;57.64;101559.84;1967166;28;2754480;-80
2023/04/07 02:31:30;;;;;;;;;5.33;3.00;;;;;11.61;57.71;101559.84;1974510;28;2736749;-80
2023/04/07 02:32:43;;;;;;;;;5.00;3.17;;;;;11.61;57.61;101570.38;1974871;28;2744019;-80
2023/04/07 02:33:56;;;;;;;;;3.17;2.50;;;;;11.62;57.61;101572.13;1998652;28;2729430;-80
2023/04/07 02:35:10;;;;;;;;;4.67;2.50;;;;;11.62;57.91;101561.59;1972903;28;2750290;-80
2023/04/07 02:36:25;;;;;;;;;2.67;1.67;;;;;11.61;57.87;101570.38;1973088;28;2754440;-80
2023/04/07 02:37:38;;;;;;;;;6.50;3.83;;;;;11.61;57.84;101573.03;1974224;28;2749228;-80
2023/04/07 02:38:51;;;;;;;;;4.17;2.83;;;;;11.62;57.87;101574.75;1974258;28;2742998;-80
2023/04/07 02:40:05;;;;;;;;;3.33;2.17;;;;;11.62;57.94;101571.25;1973842;28;2737798;-80
2023/04/07 02:41:20;;;;;;;;;3.67;3.33;;;;;11.61;57.83;101559.84;1974070;28;2747141;-80
2023/04/07 02:42:33;;;;;;;;;2.33;1.17;;;;;11.61;57.91;101565.13;1974788;28;2740875;-80
2023/04/07 02:43:44;;;;;;;;;6.00;4.00;;;;;11.62;57.98;101556.34;1971944;28;2750358;-80
2023/04/07 02:44:55;;;;;;;;;7.33;4.33;;;;;11.63;58.03;101565.09;1995468;28;2752341;-80
2023/04/07 02:46:08;;;;;;;;;6.00;3.83;;;;;11.65;58.28;101568.56;1973142;28;2749224;-80
2023/04/07 02:47:21;;;;;;;;;5.17;3.83;;;;;11.65;58.29;101565.94;1972421;28;2750272;-80
2023/04/07 02:48:35;;;;;;;;;3.50;3.50;;;;;11.65;58.40;101555.41;1966099;28;2746140;-80
2023/04/07 02:49:48;;;;;;;;;5.00;2.67;;;;;11.65;58.08;101560.66;1967765;28;2739836;-80
2023/04/07 02:51:01;;;;;;;;;3.00;3.00;;;;;11.65;58.61;101552.75;1997489;28;2741356;-80
2023/04/07 02:52:15;;;;;;;;;4.50;2.83;;;;;11.65;58.10;101552.75;1997117;28;2734644;-80
2023/04/07 02:53:28;;;;;;;;;3.83;3.50;;;;;11.64;58.20;101545.75;1997015;28;2741929;-80
2023/04/07 02:54:41;;;;;;;;;2.83;2.83;;;;;11.64;58.13;101551.88;1964604;28;2750270;-80
2023/04/07 02:55:54;;;;;;;;;4.50;2.83;;;;;11.64;58.33;101541.34;1966595;28;2746095;-80
2023/04/07 02:57:08;;;;;;;;;1.67;1.67;;;;;11.64;58.45;101546.63;1997371;28;2741939;-80
2023/04/07 02:58:21;;;;;;;;;4.50;4.33;;;;;11.64;58.32;101545.75;1997608;28;2742995;-80
2023/04/07 02:59:34;;;;;;;;;6.67;5.17;;;;;11.63;58.32;101547.50;1974871;28;2742966;-81
2023/04/07 03:00:48;;;;;;;;;6.67;6.00;;;;;11.64;58.31;101551.00;1974597;28;2738810;-81
2023/04/07 03:02:01;;;;;;;;;8.67;4.67;;;;;11.64;58.17;101551.88;1974743;28;2746142;-80
2023/04/07 03:03:14;;;;;;;;;7.00;4.17;;;;;11.65;58.52;101556.25;1974432;28;2732562;-80
2023/04/07 03:04:27;;;;;;;;;6.00;4.67;;;;;11.64;58.46;101553.66;1974230;28;2746363;-80
2023/04/07 03:05:41;;;;;;;;;6.00;5.17;;;;;11.63;58.42;101544.88;1972586;28;2748191;-80
2023/04/07 03:06:55;;;;;;;;;3.83;3.83;;;;;11.62;58.46;101540.53;1973357;28;2741961;-80
2023/04/07 03:08:08;;;;;;;;;7.83;4.00;;;;;11.61;58.54;101551.09;1972105;28;2746127;-80
2023/04/07 03:09:22;;;;;;;;;7.67;4.67;;;;;11.61;58.58;101546.69;1966425;28;2742986;-80
2023/04/07 03:10:35;;;;;;;;;5.33;3.83;;;;;11.60;58.58;101555.50;1974593;28;2746147;-80
2023/04/07 03:11:48;;;;;;;;;6.33;3.33;;;;;11.58;58.30;101545.00;1973553;28;2754428;-80
2023/04/07 03:13:01;;;;;;;;;4.67;4.50;;;;;11.57;58.58;101545.91;1973360;28;2754455;-80
2023/04/07 03:14:12;;;;;;;;;9.00;4.00;;;;;11.57;58.40;101548.56;1947200;28;2762853;-80
2023/04/07 03:15:23;;;;;;;;;9.00;6.00;;;;;11.56;58.66;101546.81;1996092;28;2741944;-80
2023/04/07 03:16:36;;;;;;;;;6.50;4.17;;;;;11.55;58.66;101545.09;1996129;28;2739857;-80
2023/04/07 03:17:49;;;;;;;;;3.50;3.17;;;;;11.54;58.60;101548.63;1995653;28;2750379;-80
2023/04/07 03:19:02;;;;;;;;;6.67;3.33;;;;;11.53;58.41;101546.03;1974029;28;2739893;-80
2023/04/07 03:20:16;;;;;;;;;4.83;4.83;;;;;11.51;58.92;101548.69;1967898;28;2742999;-80
2023/04/07 03:21:30;;;;;;;;;4.00;2.83;;;;;11.50;58.79;101546.97;1967926;28;2750270;-80
2023/04/07 03:22:46;;;;;;;;;5.33;3.83;;;;;11.48;58.74;101544.34;1981517;28;2744080;-80
2023/04/07 03:23:56;;;;;;;;;7.00;3.33;;;;;11.50;58.69;101551.34;1948228;28;2749239;-80
2023/04/07 03:25:08;;;;;;;;;3.50;1.50;;;;;11.49;58.76;101539.97;1989359;28;2748226;-81
2023/04/07 03:26:21;;;;;;;;;3.67;3.33;;;;;11.49;58.79;101553.13;1988462;28;2737778;-80
2023/04/07 03:27:35;;;;;;;;;6.00;4.00;;;;;11.50;58.79;101554.00;1986620;28;2752345;-80
2023/04/07 03:28:48;;;;;;;;;4.83;4.83;;;;;11.47;58.86;101547.91;1995688;28;2749220;-80
2023/04/07 03:30:02;;;;;;;;;6.17;3.50;;;;;11.47;58.89;101549.66;1974018;28;2744068;-80
2023/04/07 03:31:16;;;;;;;;;5.50;4.50;;;;;11.45;58.98;101546.22;1972290;28;2748175;-80
2023/04/07 03:32:29;;;;;;;;;3.83;3.50;;;;;11.42;58.74;101547.16;1974145;28;2746111;-80
2023/04/07 03:33:42;;;;;;;;;3.67;3.67;;;;;11.41;59.31;101542.75;1973346;28;2754460;-80
2023/04/07 03:34:56;;;;;;;;;4.67;3.33;;;;;11.40;58.97;101546.31;1972997;28;2754456;-80
2023/04/07 03:36:09;;;;;;;;;4.00;2.50;;;;;11.39;58.89;101548.97;1974879;28;2736725;-80
2023/04/07 03:37:23;;;;;;;;;7.50;5.00;;;;;11.39;59.71;101548.97;1974332;28;2739897;-80
2023/04/07 03:38:36;;;;;;;;;4.83;3.33;;;;;11.37;59.00;101546.38;1979363;28;2731860;-80
2023/04/07 03:39:49;;;;;;;;;9.50;5.67;;;;;11.35;59.06;101551.69;1976891;28;2763826;-80
2023/04/07 03:40:59;;;;;;;;;4.00;3.00;;;;;11.33;59.50;101547.38;1948385;28;2746110;-80
2023/04/07 03:42:12;;;;;;;;;5.00;3.00;;;;;11.32;59.14;101551.75;1995504;28;2754464;-80
2023/04/07 03:43:25;;;;;;;;;6.83;4.67;;;;;11.31;59.05;101551.81;1974577;28;2745058;-80
2023/04/07 03:44:38;;;;;;;;;5.00;3.50;;;;;11.29;59.42;101558.84;1996592;28;2750274;-80
2023/04/07 03:45:53;;;;;;;;;2.83;2.83;;;;;11.25;59.52;101556.31;1997107;28;2746124;-79
2023/04/07 03:47:06;;;;;;;;;2.83;0.83;;;;;11.23;59.22;101555.47;1975247;28;2734637;-80
2023/04/07 03:48:17;;;;;;;;;6.67;4.33;;;;;11.22;59.23;101556.38;1968796;28;2746099;-80
2023/04/07 03:49:28;;;;;;;;;4.00;3.67;;;;;11.20;59.39;101560.81;1969909;28;2754452;-79
2023/04/07 03:50:39;;;;;;;;;10.67;4.00;;;;;11.19;59.41;101560.81;1970042;28;2780572;-80
2023/04/07 03:51:50;;;;;;;;;6.00;4.33;;;;;11.17;59.76;101558.22;1973212;28;2749601;-79
2023/04/07 03:53:01;;;;;;;;;3.00;2.67;;;;;11.15;59.66;101557.41;2002738;28;2734684;-79
2023/04/07 03:54:14;;;;;;;;;5.00;3.67;;;;;11.15;59.98;101557.41;2003616;28;2744031;-79
2023/04/07 03:55:27;;;;;;;;;7.33;2.17;;;;;11.14;59.66;101560.91;1974024;28;2752368;-80
2023/04/07 03:56:40;;;;;;;;;4.33;3.50;;;;;11.13;59.49;101559.22;1973859;28;2752391;-80
2023/04/07 03:57:54;;;;;;;;;3.67;2.00;;;;;11.12;59.60;101555.69;1973517;28;2741980;-80
2023/04/07 03:59:07;;;;;;;;;3.33;2.50;;;;;11.12;59.58;101557.47;1974322;28;2741960;-80
2023/04/07 04:00:20;;;;;;;;;3.50;2.00;;;;;11.11;59.71;101561.00;1996903;28;2752375;-80
2023/04/07 04:01:34;;;;;;;;;5.83;3.50;;;;;11.11;60.06;101555.75;1973967;28;2750308;-80
2023/04/07 04:02:48;;;;;;;;;4.00;4.00;;;;;11.10;59.92;101564.53;1973988;28;2754441;-80
2023/04/07 04:04:01;;;;;;;;;8.00;4.83;;;;;11.09;59.73;101549.63;1973112;28;2762789;-80
2023/04/07 04:05:14;;;;;;;;;4.67;3.67;;;;;11.07;59.98;101559.31;1973647;28;2748181;-80
2023/04/07 04:06:28;;;;;;;;;3.33;3.33;;;;;11.05;59.98;101564.63;1974822;28;2742474;-79
2023/04/07 04:07:41;;;;;;;;;3.83;3.50;;;;;11.04;59.87;101557.63;1996833;28;2748273;-80
2023/04/07 04:08:54;;;;;;;;;9.83;5.33;;;;;11.02;60.14;101552.41;1973055;28;2757565;-80
2023/04/07 04:10:08;;;;;;;;;6.67;4.00;;;;;11.01;59.98;101550.66;1973461;28;2741929;-79
2023/04/07 04:11:21;;;;;;;;;5.50;4.50;;;;;11.01;60.13;101555.09;1996810;28;2734670;-80
2023/04/07 04:12:34;;;;;;;;;6.17;4.17;;;;;11.01;60.11;101560.34;1972788;28;2752352;-79
2023/04/07 04:13:47;;;;;;;;;4.00;3.50;;;;;10.99;60.16;101555.09;1974482;28;2750290;-79
2023/04/07 04:15:01;;;;;;;;;4.83;3.67;;;;;10.99;60.37;101559.47;1973321;28;2754452;-80
2023/04/07 04:16:14;;;;;;;;;7.17;5.00;;;;;10.98;60.14;101558.66;1974255;28;2745601;-79
2023/04/07 04:17:27;;;;;;;;;5.00;4.17;;;;;10.96;60.07;101564.84;1972997;28;2749223;-80
2023/04/07 04:18:40;;;;;;;;;4.17;2.33;;;;;10.95;60.08;101560.47;1964284;28;2735726;-80
2023/04/07 04:19:54;;;;;;;;;6.00;4.00;;;;;10.95;60.22;101565.72;1989792;28;2752387;-79
2023/04/07 04:21:07;;;;;;;;;5.83;4.17;;;;;10.92;60.52;101569.28;1973655;28;2751347;-80
2023/04/07 04:22:20;;;;;;;;;8.17;4.17;;;;;10.91;59.97;101570.19;1996564;28;2744079;-79
2023/04/07 04:23:34;;;;;;;;;7.67;4.67;;;;;10.90;60.23;101571.94;1977808;28;2746642;-80
2023/04/07 04:24:47;;;;;;;;;5.50;4.17;;;;;10.89;60.37;101570.22;1979372;28;2748182;-79
2023/04/07 04:26:02;;;;;;;;;2.83;2.83;;;;;10.89;60.40;101572.00;1973494;28;2746103;-79
2023/04/07 04:27:15;;;;;;;;;5.50;5.33;;;;;10.88;60.29;101581.66;1973747;28;2746103;-80
2023/04/07 04:28:29;;;;;;;;;7.67;5.83;;;;;10.88;60.37;101575.50;1994860;28;2740902;-80
2023/04/07 04:29:42;;;;;;;;;5.00;3.00;;;;;10.87;60.26;101579.91;1996868;28;2736744;-80
2023/04/07 04:30:55;;;;;;;;;4.67;4.50;;;;;10.89;60.49;101574.63;1972080;28;2751363;-81
2023/04/07 04:32:09;;;;;;;;;4.00;4.00;;;;;10.90;60.64;101584.22;1981016;28;2754439;-80
2023/04/07 04:33:22;;;;;;;;;4.33;4.00;;;;;10.90;60.31;101581.59;1976300;28;2745098;-80
2023/04/07 04:34:35;;;;;;;;;4.83;3.00;;;;;10.90;60.42;101584.22;1973322;28;2736716;-80
2023/04/07 04:35:48;;;;;;;;;4.00;3.33;;;;;10.89;59.85;101579.88;1995698;28;2745066;-80
2023/04/07 04:37:01;;;;;;;;;4.00;4.00;;;;;10.89;60.09;101582.50;1996357;28;2754444;-79
2023/04/07 04:38:15;;;;;;;;;6.33;4.00;;;;;10.88;60.23;101583.41;1972646;28;2748600;-80
2023/04/07 04:39:28;;;;;;;;;4.00;3.83;;;;;10.87;60.16;101589.53;1966765;28;2754443;-80
2023/04/07 04:40:41;;;;;;;;;5.50;3.67;;;;;10.86;60.38;101585.19;1973129;28;2735730;-80
2023/04/07 04:41:52;;;;;;;;;9.33;4.00;;;;;10.85;60.11;101586.09;1947318;28;2760735;-80
2023/04/07 04:43:06;;;;;;;;;5.33;3.67;;;;;10.84;60.41;101584.38;1995083;28;2752349;-80
2023/04/07 04:44:19;;;;;;;;;5.67;5.33;;;;;10.83;60.49;101585.25;1973700;28;2745045;-80
2023/04/07 04:45:30;;;;;;;;;7.00;6.00;;;;;10.80;61.18;101592.31;1947820;28;2745068;-79
2023/04/07 04:46:42;;;;;;;;;6.00;4.20;;;;;10.79;60.46;101593.19;1994337;28;2752414;-80
2023/04/07 04:47:56;;;;;;;;;5.50;3.83;;;;;10.78;60.82;101590.59;1989677;28;2747146;-81
2023/04/07 04:49:09;;;;;;;;;9.33;3.50;;;;;10.76;60.43;101590.66;1972466;28;2757581;-80
2023/04/07 04:50:22;;;;;;;;;5.50;4.50;;;;;10.74;60.44;101587.16;1972670;28;2751330;-80
2023/04/07 04:51:35;;;;;;;;;5.00;2.83;;;;;10.73;61.14;101587.19;1973320;28;2736721;-80
2023/04/07 04:52:48;;;;;;;;;6.67;3.83;;;;;10.72;60.93;101596.00;1987530;28;2744016;-80
2023/04/07 04:53:59;;;;;;;;;8.33;4.67;;;;;10.71;60.84;101595.13;1947986;28;2742979;-80
2023/04/07 04:55:11;;;;;;;;;6.50;6.00;;;;;10.70;60.77;101590.75;1995531;28;2750301;-80
2023/04/07 04:56:24;;;;;;;;;7.33;4.67;;;;;10.71;60.59;101594.25;1973011;28;2745109;-80
2023/04/07 04:57:38;;;;;;;;;7.17;4.00;;;;;10.69;60.98;101591.69;1996643;28;2748186;-80
2023/04/07 04:58:51;;;;;;;;;9.17;4.50;;;;;10.68;60.72;101595.19;1995315;28;2752880;-80
2023/04/07 05:00:06;;;;;;;;;4.17;3.50;;;;;10.67;60.79;101596.94;1972696;28;2750683;-80
2023/04/07 05:01:17;;;;;;;;;5.67;4.00;;;;;10.67;61.10;101594.31;1961676;28;3464813;-80
2023/04/07 05:02:28;;;;;;;;;7.33;4.00;;;;;10.67;61.09;101590.81;1986089;28;2752814;-80
2023/04/07 05:03:41;;;;;;;;;6.50;5.00;;;;;10.68;60.90;101597.81;1970167;28;2740895;-80
2023/04/07 05:04:54;;;;;;;;;5.83;3.83;;;;;10.67;60.85;101596.06;1973450;28;2750289;-79
2023/04/07 05:06:08;;;;;;;;;7.00;4.17;;;;;10.66;61.07;101596.97;1996327;28;2748170;-80
2023/04/07 05:07:18;;;;;;;;;9.67;4.67;;;;;10.64;60.79;101596.16;1948568;28;2758603;-80
2023/04/07 05:08:29;;;;;;;;;8.67;5.67;;;;;10.63;60.95;101597.03;1995150;28;2746116;-80
2023/04/07 05:09:40;;;;;;;;;5.67;5.00;;;;;10.63;60.70;101607.56;1968158;28;2746127;-80
2023/04/07 05:10:52;;;;;;;;;4.00;4.00;;;;;10.62;61.00;101605.84;1993670;28;2740903;-80
2023/04/07 05:12:05;;;;;;;;;6.83;4.00;;;;;10.62;60.49;101606.69;1996021;28;2750366;-80
2023/04/07 05:13:18;;;;;;;;;6.83;4.50;;;;;10.63;60.96;101607.56;1965135;28;2749244;-80
2023/04/07 05:14:32;;;;;;;;;3.00;1.67;;;;;10.64;60.93;101604.03;1989407;28;2744024;-80
2023/04/07 05:15:45;;;;;;;;;7.33;5.00;;;;;10.64;60.79;101604.88;1994800;28;2752377;-80
2023/04/07 05:16:55;;;;;;;;;12.00;6.33;;;;;10.64;61.02;101604.88;1947268;28;2773205;-80
2023/04/07 05:18:07;;;;;;;;;7.67;6.00;;;;;10.64;60.52;101601.41;1995390;28;2746106;-80
2023/04/07 05:19:17;;;;;;;;;7.67;6.67;;;;;10.64;60.70;101594.38;1949633;28;2746611;-80
2023/04/07 05:20:28;;;;;;;;;12.00;7.67;;;;;10.64;61.08;101604.03;1987307;28;3472139;-80
2023/04/07 05:21:39;;;;;;;;;10.00;7.00;;;;;10.63;60.96;101599.66;1984561;28;2754465;-80
2023/04/07 05:22:51;;;;;;;;;5.00;5.00;;;;;10.62;61.29;101600.59;1994548;28;2744028;-80
2023/04/07 05:24:04;;;;;;;;;7.83;6.00;;;;;10.61;60.94;101598.84;1996450;28;2736133;-80
2023/04/07 05:25:17;;;;;;;;;10.67;6.00;;;;;10.61;61.32;101596.19;1994993;28;2748182;-80
2023/04/07 05:26:30;;;;;;;;;5.33;5.33;;;;;10.60;61.12;101594.47;1971825;28;2747146;-80
2023/04/07 05:27:44;;;;;;;;;7.83;7.33;;;;;10.60;60.94;101597.09;1973079;28;2740931;-80
2023/04/07 05:28:54;;;;;;;;;10.00;7.00;;;;;10.59;60.83;101596.25;1968245;28;3482931;-80
2023/04/07 05:30:07;;;;;;;;;10.60;8.40;;;;;10.58;61.09;101594.50;1985961;28;2752420;-81
2023/04/07 05:31:21;;;;;;;;;8.00;7.00;;;;;10.59;61.14;101598.88;1989284;28;2738818;-80
2023/04/07 05:32:34;;;;;;;;;8.17;5.83;;;;;10.58;60.96;101589.25;1986623;28;2740910;-80
2023/04/07 05:33:44;;;;;;;;;9.67;7.00;;;;;10.58;61.15;101590.13;1962119;28;3461734;-80
2023/04/07 05:34:56;;;;;;;;;9.25;7.75;;;;;10.61;60.97;101593.56;1996832;28;2751311;-80
2023/04/07 05:36:06;;;;;;;;;8.33;7.33;;;;;10.61;60.85;101591.81;1976246;28;2733602;-80
2023/04/07 05:37:17;;;;;;;;;8.00;7.00;;;;;10.61;61.13;101594.44;1998304;28;2737772;-80
2023/04/07 05:38:28;;;;;;;;;9.00;6.00;;;;;10.62;60.92;101592.69;1947536;28;2750305;-80